sensor_id;sensor_type;location;lat;lon;timestamp;P1;durP1;ratioP1;P2;durP2;ratioP2
39266;SDS011;24967;51.154;13.812;2022-08-26T00:01:11;20.58;;;12.48;;
39266;SDS011;24967;51.154;13.812;2022-08-26T00:03:37;16.83;;;12.95;;
39266;SDS011;24967;51.154;13.812;2022-08-26T00:06:04;18.70;;;12.70;;
39266;SDS011;24967;51.154;13.812;2022-08-26T00:08:31;16.38;;;12.23;;
39266;SDS011;24967;51.154;13.812;2022-08-26T00:10:59;20.48;;;13.32;;
39266;SDS011;24967;51.154;13.812;2022-08-26T00:13:26;19.02;;;13.93;;
39266;SDS011;24967;51.154;13.812;2022-08-26T00:15:54;15.63;;;12.73;;
39266;SDS011;24967;51.154;13.812;2022-08-26T00:18:21;21.75;;;13.65;;
39266;SDS011;24967;51.154;13.812;2022-08-26T00:20:48;16.52;;;13.52;;
39266;SDS011;24967;51.154;13.812;2022-08-26T00:23:15;15.15;;;12.25;;
39266;SDS011;24967;51.154;13.812;2022-08-26T00:25:42;23.05;;;13.75;;
39266;SDS011;24967;51.154;13.812;2022-08-26T00:28:10;29.77;;;15.90;;
39266;SDS011;24967;51.154;13.812;2022-08-26T00:30:37;24.55;;;15.13;;
39266;SDS011;24967;51.154;13.812;2022-08-26T00:33:04;22.23;;;15.02;;
39266;SDS011;24967;51.154;13.812;2022-08-26T00:35:31;21.60;;;14.27;;
39266;SDS011;24967;51.154;13.812;2022-08-26T00:37:59;19.25;;;13.98;;
39266;SDS011;24967;51.154;13.812;2022-08-26T00:40:26;20.85;;;13.77;;
39266;SDS011;24967;51.154;13.812;2022-08-26T00:42:54;17.70;;;13.77;;
39266;SDS011;24967;51.154;13.812;2022-08-26T00:45:22;21.58;;;13.63;;
39266;SDS011;24967;51.154;13.812;2022-08-26T00:47:50;16.27;;;12.38;;
39266;SDS011;24967;51.154;13.812;2022-08-26T00:50:21;20.65;;;13.50;;
39266;SDS011;24967;51.154;13.812;2022-08-26T00:52:50;24.40;;;13.80;;
39266;SDS011;24967;51.154;13.812;2022-08-26T00:55:19;18.95;;;12.63;;
39266;SDS011;24967;51.154;13.812;2022-08-26T00:57:49;18.70;;;12.77;;
39266;SDS011;24967;51.154;13.812;2022-08-26T01:00:19;17.67;;;12.63;;
39266;SDS011;24967;51.154;13.812;2022-08-26T01:02:49;20.17;;;14.48;;
39266;SDS011;24967;51.154;13.812;2022-08-26T01:05:17;23.38;;;14.23;;
39266;SDS011;24967;51.154;13.812;2022-08-26T01:07:44;22.98;;;14.80;;
39266;SDS011;24967;51.154;13.812;2022-08-26T01:10:12;25.35;;;14.70;;
39266;SDS011;24967;51.154;13.812;2022-08-26T01:15:11;27.95;;;16.00;;
39266;SDS011;24967;51.154;13.812;2022-08-26T01:17:41;24.67;;;15.75;;
39266;SDS011;24967;51.154;13.812;2022-08-26T01:20:09;21.95;;;15.10;;
39266;SDS011;24967;51.154;13.812;2022-08-26T01:22:48;23.65;;;14.95;;
39266;SDS011;24967;51.154;13.812;2022-08-26T01:25:18;23.13;;;16.02;;
39266;SDS011;24967;51.154;13.812;2022-08-26T01:27:46;20.52;;;14.93;;
39266;SDS011;24967;51.154;13.812;2022-08-26T01:30:13;16.38;;;13.32;;
39266;SDS011;24967;51.154;13.812;2022-08-26T01:32:40;15.40;;;12.77;;
39266;SDS011;24967;51.154;13.812;2022-08-26T01:35:07;16.88;;;14.07;;
39266;SDS011;24967;51.154;13.812;2022-08-26T01:37:35;16.35;;;13.85;;
39266;SDS011;24967;51.154;13.812;2022-08-26T01:40:06;24.85;;;15.93;;
39266;SDS011;24967;51.154;13.812;2022-08-26T01:42:39;24.17;;;14.48;;
39266;SDS011;24967;51.154;13.812;2022-08-26T01:45:08;23.33;;;15.65;;
39266;SDS011;24967;51.154;13.812;2022-08-26T01:47:38;20.67;;;15.00;;
39266;SDS011;24967;51.154;13.812;2022-08-26T01:50:08;24.23;;;15.70;;
39266;SDS011;24967;51.154;13.812;2022-08-26T01:52:39;22.65;;;15.63;;
39266;SDS011;24967;51.154;13.812;2022-08-26T01:55:09;21.08;;;14.73;;
39266;SDS011;24967;51.154;13.812;2022-08-26T01:57:39;28.85;;;16.63;;
39266;SDS011;24967;51.154;13.812;2022-08-26T02:00:07;20.85;;;15.90;;
39266;SDS011;24967;51.154;13.812;2022-08-26T02:02:37;17.50;;;13.98;;
39266;SDS011;24967;51.154;13.812;2022-08-26T02:05:04;17.50;;;13.70;;
39266;SDS011;24967;51.154;13.812;2022-08-26T02:07:32;18.23;;;13.20;;
39266;SDS011;24967;51.154;13.812;2022-08-26T02:09:59;16.40;;;12.98;;
39266;SDS011;24967;51.154;13.812;2022-08-26T02:12:27;17.42;;;12.57;;
39266;SDS011;24967;51.154;13.812;2022-08-26T02:14:55;19.20;;;14.15;;
39266;SDS011;24967;51.154;13.812;2022-08-26T02:17:27;15.60;;;12.95;;
39266;SDS011;24967;51.154;13.812;2022-08-26T02:19:58;23.15;;;14.57;;
39266;SDS011;24967;51.154;13.812;2022-08-26T02:22:26;20.27;;;13.45;;
39266;SDS011;24967;51.154;13.812;2022-08-26T02:24:55;20.02;;;14.30;;
39266;SDS011;24967;51.154;13.812;2022-08-26T02:27:24;20.27;;;14.45;;
39266;SDS011;24967;51.154;13.812;2022-08-26T02:29:54;15.73;;;13.80;;
39266;SDS011;24967;51.154;13.812;2022-08-26T02:32:23;21.45;;;14.43;;
39266;SDS011;24967;51.154;13.812;2022-08-26T02:34:50;19.77;;;14.15;;
39266;SDS011;24967;51.154;13.812;2022-08-26T02:37:16;17.40;;;13.48;;
39266;SDS011;24967;51.154;13.812;2022-08-26T02:39:43;17.05;;;13.35;;
39266;SDS011;24967;51.154;13.812;2022-08-26T02:42:10;21.38;;;14.93;;
39266;SDS011;24967;51.154;13.812;2022-08-26T02:44:38;17.48;;;14.15;;
39266;SDS011;24967;51.154;13.812;2022-08-26T02:47:05;18.10;;;12.82;;
39266;SDS011;24967;51.154;13.812;2022-08-26T02:49:32;20.00;;;14.75;;
39266;SDS011;24967;51.154;13.812;2022-08-26T02:51:59;18.83;;;14.43;;
39266;SDS011;24967;51.154;13.812;2022-08-26T02:54:25;19.38;;;13.88;;
39266;SDS011;24967;51.154;13.812;2022-08-26T02:56:52;18.52;;;14.18;;
39266;SDS011;24967;51.154;13.812;2022-08-26T02:59:19;20.85;;;14.68;;
39266;SDS011;24967;51.154;13.812;2022-08-26T03:01:47;16.52;;;13.68;;
39266;SDS011;24967;51.154;13.812;2022-08-26T03:04:14;17.92;;;13.75;;
39266;SDS011;24967;51.154;13.812;2022-08-26T03:06:41;15.95;;;13.60;;
39266;SDS011;24967;51.154;13.812;2022-08-26T03:09:08;17.25;;;12.65;;
39266;SDS011;24967;51.154;13.812;2022-08-26T03:11:35;13.98;;;12.45;;
39266;SDS011;24967;51.154;13.812;2022-08-26T03:14:02;16.05;;;12.25;;
39266;SDS011;24967;51.154;13.812;2022-08-26T03:16:29;17.00;;;13.07;;
39266;SDS011;24967;51.154;13.812;2022-08-26T03:18:58;17.33;;;13.52;;
39266;SDS011;24967;51.154;13.812;2022-08-26T03:21:25;15.93;;;12.93;;
39266;SDS011;24967;51.154;13.812;2022-08-26T03:23:51;19.23;;;14.30;;
39266;SDS011;24967;51.154;13.812;2022-08-26T03:26:18;17.50;;;13.23;;
39266;SDS011;24967;51.154;13.812;2022-08-26T03:28:44;18.58;;;13.75;;
39266;SDS011;24967;51.154;13.812;2022-08-26T03:31:25;17.02;;;14.13;;
39266;SDS011;24967;51.154;13.812;2022-08-26T03:33:52;18.75;;;13.70;;
39266;SDS011;24967;51.154;13.812;2022-08-26T03:36:20;17.08;;;13.43;;
39266;SDS011;24967;51.154;13.812;2022-08-26T03:38:47;25.25;;;13.52;;
39266;SDS011;24967;51.154;13.812;2022-08-26T03:41:14;22.08;;;13.35;;
39266;SDS011;24967;51.154;13.812;2022-08-26T03:43:41;17.17;;;13.80;;
39266;SDS011;24967;51.154;13.812;2022-08-26T03:46:08;16.90;;;12.95;;
39266;SDS011;24967;51.154;13.812;2022-08-26T03:48:37;16.25;;;13.48;;
39266;SDS011;24967;51.154;13.812;2022-08-26T03:51:06;14.98;;;13.25;;
39266;SDS011;24967;51.154;13.812;2022-08-26T03:53:39;21.27;;;12.82;;
39266;SDS011;24967;51.154;13.812;2022-08-26T03:56:06;17.40;;;13.65;;
39266;SDS011;24967;51.154;13.812;2022-08-26T03:58:32;18.63;;;14.27;;
39266;SDS011;24967;51.154;13.812;2022-08-26T04:00:59;17.38;;;13.52;;
39266;SDS011;24967;51.154;13.812;2022-08-26T04:03:26;18.30;;;13.68;;
39266;SDS011;24967;51.154;13.812;2022-08-26T04:06:10;18.45;;;15.05;;
39266;SDS011;24967;51.154;13.812;2022-08-26T04:08:39;22.50;;;16.42;;
39266;SDS011;24967;51.154;13.812;2022-08-26T04:11:06;19.45;;;15.07;;
39266;SDS011;24967;51.154;13.812;2022-08-26T04:13:33;20.10;;;14.82;;
39266;SDS011;24967;51.154;13.812;2022-08-26T04:15:59;20.08;;;15.38;;
39266;SDS011;24967;51.154;13.812;2022-08-26T04:18:26;17.20;;;13.75;;
39266;SDS011;24967;51.154;13.812;2022-08-26T04:20:55;24.48;;;14.30;;
39266;SDS011;24967;51.154;13.812;2022-08-26T04:23:22;19.27;;;13.98;;
39266;SDS011;24967;51.154;13.812;2022-08-26T04:25:50;17.33;;;13.68;;
39266;SDS011;24967;51.154;13.812;2022-08-26T04:28:16;20.20;;;13.60;;
39266;SDS011;24967;51.154;13.812;2022-08-26T04:30:43;15.82;;;14.07;;
39266;SDS011;24967;51.154;13.812;2022-08-26T04:33:10;17.52;;;13.73;;
39266;SDS011;24967;51.154;13.812;2022-08-26T04:35:37;18.35;;;14.02;;
39266;SDS011;24967;51.154;13.812;2022-08-26T04:38:04;16.70;;;13.05;;
39266;SDS011;24967;51.154;13.812;2022-08-26T04:40:30;18.70;;;15.05;;
39266;SDS011;24967;51.154;13.812;2022-08-26T04:42:58;19.95;;;14.05;;
39266;SDS011;24967;51.154;13.812;2022-08-26T04:45:25;22.65;;;13.88;;
39266;SDS011;24967;51.154;13.812;2022-08-26T04:47:52;22.58;;;15.40;;
39266;SDS011;24967;51.154;13.812;2022-08-26T04:50:22;22.42;;;14.48;;
39266;SDS011;24967;51.154;13.812;2022-08-26T04:52:50;16.20;;;14.15;;
39266;SDS011;24967;51.154;13.812;2022-08-26T04:55:17;20.85;;;14.80;;
39266;SDS011;24967;51.154;13.812;2022-08-26T04:57:44;23.83;;;15.73;;
39266;SDS011;24967;51.154;13.812;2022-08-26T05:00:12;20.25;;;15.95;;
39266;SDS011;24967;51.154;13.812;2022-08-26T05:02:39;20.77;;;15.30;;
39266;SDS011;24967;51.154;13.812;2022-08-26T05:05:06;26.38;;;16.40;;
39266;SDS011;24967;51.154;13.812;2022-08-26T05:07:33;25.13;;;16.70;;
39266;SDS011;24967;51.154;13.812;2022-08-26T05:10:00;24.17;;;15.85;;
39266;SDS011;24967;51.154;13.812;2022-08-26T05:12:27;20.13;;;15.63;;
39266;SDS011;24967;51.154;13.812;2022-08-26T05:14:53;19.67;;;15.02;;
39266;SDS011;24967;51.154;13.812;2022-08-26T05:17:22;21.20;;;16.15;;
39266;SDS011;24967;51.154;13.812;2022-08-26T05:19:48;19.30;;;15.50;;
39266;SDS011;24967;51.154;13.812;2022-08-26T05:22:15;22.52;;;15.50;;
39266;SDS011;24967;51.154;13.812;2022-08-26T05:24:42;21.05;;;16.75;;
39266;SDS011;24967;51.154;13.812;2022-08-26T05:27:10;25.65;;;16.35;;
39266;SDS011;24967;51.154;13.812;2022-08-26T05:29:37;22.52;;;16.90;;
39266;SDS011;24967;51.154;13.812;2022-08-26T05:32:04;26.35;;;16.70;;
39266;SDS011;24967;51.154;13.812;2022-08-26T05:34:32;24.95;;;18.25;;
39266;SDS011;24967;51.154;13.812;2022-08-26T05:36:59;23.90;;;16.45;;
39266;SDS011;24967;51.154;13.812;2022-08-26T05:39:25;30.85;;;19.23;;
39266;SDS011;24967;51.154;13.812;2022-08-26T05:41:51;31.77;;;20.70;;
39266;SDS011;24967;51.154;13.812;2022-08-26T05:44:18;36.67;;;21.67;;
39266;SDS011;24967;51.154;13.812;2022-08-26T05:46:45;25.85;;;20.20;;
39266;SDS011;24967;51.154;13.812;2022-08-26T05:49:12;36.95;;;21.95;;
39266;SDS011;24967;51.154;13.812;2022-08-26T05:51:41;29.48;;;20.42;;
39266;SDS011;24967;51.154;13.812;2022-08-26T05:56:37;31.60;;;20.40;;
39266;SDS011;24967;51.154;13.812;2022-08-26T05:59:04;34.30;;;21.08;;
39266;SDS011;24967;51.154;13.812;2022-08-26T06:01:31;30.33;;;20.33;;
39266;SDS011;24967;51.154;13.812;2022-08-26T06:03:59;30.85;;;19.67;;
39266;SDS011;24967;51.154;13.812;2022-08-26T06:06:27;35.38;;;21.60;;
39266;SDS011;24967;51.154;13.812;2022-08-26T06:08:56;32.55;;;21.98;;
39266;SDS011;24967;51.154;13.812;2022-08-26T06:11:24;32.97;;;22.83;;
39266;SDS011;24967;51.154;13.812;2022-08-26T06:13:52;34.97;;;22.30;;
39266;SDS011;24967;51.154;13.812;2022-08-26T06:16:20;33.10;;;22.27;;
39266;SDS011;24967;51.154;13.812;2022-08-26T06:18:48;32.35;;;21.48;;
39266;SDS011;24967;51.154;13.812;2022-08-26T06:21:17;29.00;;;21.25;;
39266;SDS011;24967;51.154;13.812;2022-08-26T06:23:45;37.05;;;23.05;;
39266;SDS011;24967;51.154;13.812;2022-08-26T06:26:32;32.80;;;20.08;;
39266;SDS011;24967;51.154;13.812;2022-08-26T06:28:59;27.77;;;22.17;;
39266;SDS011;24967;51.154;13.812;2022-08-26T06:31:27;32.75;;;21.33;;
39266;SDS011;24967;51.154;13.812;2022-08-26T06:33:54;39.17;;;21.95;;
39266;SDS011;24967;51.154;13.812;2022-08-26T06:36:23;30.60;;;21.52;;
39266;SDS011;24967;51.154;13.812;2022-08-26T06:38:52;34.30;;;21.73;;
39266;SDS011;24967;51.154;13.812;2022-08-26T06:41:20;34.80;;;21.48;;
39266;SDS011;24967;51.154;13.812;2022-08-26T06:43:49;33.88;;;22.70;;
39266;SDS011;24967;51.154;13.812;2022-08-26T06:46:17;30.63;;;21.10;;
39266;SDS011;24967;51.154;13.812;2022-08-26T06:48:45;34.03;;;21.70;;
39266;SDS011;24967;51.154;13.812;2022-08-26T06:51:14;38.92;;;22.30;;
39266;SDS011;24967;51.154;13.812;2022-08-26T06:53:43;33.95;;;21.70;;
39266;SDS011;24967;51.154;13.812;2022-08-26T06:56:12;31.27;;;19.42;;
39266;SDS011;24967;51.154;13.812;2022-08-26T06:58:40;32.97;;;21.45;;
39266;SDS011;24967;51.154;13.812;2022-08-26T07:01:14;36.83;;;21.25;;
39266;SDS011;24967;51.154;13.812;2022-08-26T07:03:42;33.30;;;19.75;;
39266;SDS011;24967;51.154;13.812;2022-08-26T07:06:09;33.72;;;19.27;;
39266;SDS011;24967;51.154;13.812;2022-08-26T07:08:36;28.92;;;18.10;;
39266;SDS011;24967;51.154;13.812;2022-08-26T07:11:03;32.70;;;18.83;;
39266;SDS011;24967;51.154;13.812;2022-08-26T07:13:30;27.75;;;17.40;;
39266;SDS011;24967;51.154;13.812;2022-08-26T07:15:59;33.67;;;18.13;;
39266;SDS011;24967;51.154;13.812;2022-08-26T07:18:29;28.40;;;16.58;;
39266;SDS011;24967;51.154;13.812;2022-08-26T07:20:56;36.38;;;16.85;;
39266;SDS011;24967;51.154;13.812;2022-08-26T07:23:22;28.25;;;16.85;;
39266;SDS011;24967;51.154;13.812;2022-08-26T07:25:49;34.15;;;17.58;;
39266;SDS011;24967;51.154;13.812;2022-08-26T07:28:15;30.30;;;16.17;;
39266;SDS011;24967;51.154;13.812;2022-08-26T07:30:41;27.92;;;15.68;;
39266;SDS011;24967;51.154;13.812;2022-08-26T07:33:08;26.58;;;14.35;;
39266;SDS011;24967;51.154;13.812;2022-08-26T07:35:36;26.60;;;14.25;;
39266;SDS011;24967;51.154;13.812;2022-08-26T07:38:03;29.55;;;13.65;;
39266;SDS011;24967;51.154;13.812;2022-08-26T07:40:30;34.30;;;13.40;;
39266;SDS011;24967;51.154;13.812;2022-08-26T07:42:57;24.08;;;12.52;;
39266;SDS011;24967;51.154;13.812;2022-08-26T07:45:26;25.50;;;13.00;;
39266;SDS011;24967;51.154;13.812;2022-08-26T07:47:56;19.30;;;11.95;;
39266;SDS011;24967;51.154;13.812;2022-08-26T07:50:23;27.67;;;12.50;;
39266;SDS011;24967;51.154;13.812;2022-08-26T07:52:51;31.48;;;13.38;;
39266;SDS011;24967;51.154;13.812;2022-08-26T07:55:18;26.55;;;12.73;;
39266;SDS011;24967;51.154;13.812;2022-08-26T07:57:46;30.17;;;12.07;;
39266;SDS011;24967;51.154;13.812;2022-08-26T08:00:14;27.60;;;11.80;;
39266;SDS011;24967;51.154;13.812;2022-08-26T08:02:42;28.42;;;12.85;;
39266;SDS011;24967;51.154;13.812;2022-08-26T08:05:09;31.85;;;12.35;;
39266;SDS011;24967;51.154;13.812;2022-08-26T08:07:37;32.05;;;12.13;;
39266;SDS011;24967;51.154;13.812;2022-08-26T08:10:05;26.27;;;10.38;;
39266;SDS011;24967;51.154;13.812;2022-08-26T08:12:34;22.03;;;9.23;;
39266;SDS011;24967;51.154;13.812;2022-08-26T08:15:05;32.97;;;11.07;;
39266;SDS011;24967;51.154;13.812;2022-08-26T08:17:32;25.98;;;9.82;;
39266;SDS011;24967;51.154;13.812;2022-08-26T08:19:59;20.92;;;9.80;;
39266;SDS011;24967;51.154;13.812;2022-08-26T08:22:27;23.85;;;10.23;;
39266;SDS011;24967;51.154;13.812;2022-08-26T08:24:54;24.40;;;9.75;;
39266;SDS011;24967;51.154;13.812;2022-08-26T08:27:22;19.80;;;9.73;;
39266;SDS011;24967;51.154;13.812;2022-08-26T08:29:49;28.98;;;11.68;;
39266;SDS011;24967;51.154;13.812;2022-08-26T08:32:18;26.80;;;11.13;;
39266;SDS011;24967;51.154;13.812;2022-08-26T08:34:45;27.30;;;11.40;;
39266;SDS011;24967;51.154;13.812;2022-08-26T08:37:11;29.10;;;10.05;;
39266;SDS011;24967;51.154;13.812;2022-08-26T08:39:38;24.00;;;10.27;;
39266;SDS011;24967;51.154;13.812;2022-08-26T08:42:11;25.20;;;9.60;;
39266;SDS011;24967;51.154;13.812;2022-08-26T08:44:54;28.35;;;9.63;;
39266;SDS011;24967;51.154;13.812;2022-08-26T08:47:24;23.15;;;9.95;;
39266;SDS011;24967;51.154;13.812;2022-08-26T08:49:56;31.08;;;8.57;;
39266;SDS011;24967;51.154;13.812;2022-08-26T08:52:26;25.67;;;8.75;;
39266;SDS011;24967;51.154;13.812;2022-08-26T08:54:56;21.30;;;8.30;;
39266;SDS011;24967;51.154;13.812;2022-08-26T08:57:24;19.42;;;7.78;;
39266;SDS011;24967;51.154;13.812;2022-08-26T08:59:59;25.55;;;9.60;;
39266;SDS011;24967;51.154;13.812;2022-08-26T09:02:31;17.70;;;7.45;;
39266;SDS011;24967;51.154;13.812;2022-08-26T09:05:07;24.00;;;7.53;;
39266;SDS011;24967;51.154;13.812;2022-08-26T09:07:39;21.17;;;6.75;;
39266;SDS011;24967;51.154;13.812;2022-08-26T09:10:20;19.73;;;6.95;;
39266;SDS011;24967;51.154;13.812;2022-08-26T09:12:54;23.10;;;7.40;;
39266;SDS011;24967;51.154;13.812;2022-08-26T09:15:24;22.92;;;8.60;;
39266;SDS011;24967;51.154;13.812;2022-08-26T09:17:55;25.45;;;8.40;;
39266;SDS011;24967;51.154;13.812;2022-08-26T09:20:32;18.63;;;7.60;;
39266;SDS011;24967;51.154;13.812;2022-08-26T09:23:05;20.88;;;6.95;;
39266;SDS011;24967;51.154;13.812;2022-08-26T09:25:32;19.95;;;7.68;;
39266;SDS011;24967;51.154;13.812;2022-08-26T09:27:59;31.45;;;8.15;;
39266;SDS011;24967;51.154;13.812;2022-08-26T09:30:28;20.85;;;7.63;;
39266;SDS011;24967;51.154;13.812;2022-08-26T09:32:58;21.13;;;7.35;;
39266;SDS011;24967;51.154;13.812;2022-08-26T09:35:27;22.17;;;7.68;;
39266;SDS011;24967;51.154;13.812;2022-08-26T09:37:57;23.40;;;8.50;;
39266;SDS011;24967;51.154;13.812;2022-08-26T09:40:26;26.08;;;8.30;;
39266;SDS011;24967;51.154;13.812;2022-08-26T09:43:06;29.50;;;8.68;;
39266;SDS011;24967;51.154;13.812;2022-08-26T09:45:39;21.92;;;7.97;;
39266;SDS011;24967;51.154;13.812;2022-08-26T09:48:07;19.73;;;7.45;;
39266;SDS011;24967;51.154;13.812;2022-08-26T09:50:35;20.80;;;7.65;;
39266;SDS011;24967;51.154;13.812;2022-08-26T09:53:07;30.55;;;9.35;;
39266;SDS011;24967;51.154;13.812;2022-08-26T09:55:40;30.35;;;9.45;;
39266;SDS011;24967;51.154;13.812;2022-08-26T09:58:11;29.30;;;9.15;;
39266;SDS011;24967;51.154;13.812;2022-08-26T10:00:40;24.77;;;8.20;;
39266;SDS011;24967;51.154;13.812;2022-08-26T10:03:08;25.23;;;9.50;;
39266;SDS011;24967;51.154;13.812;2022-08-26T10:05:39;22.75;;;9.27;;
39266;SDS011;24967;51.154;13.812;2022-08-26T10:08:15;31.63;;;9.52;;
39266;SDS011;24967;51.154;13.812;2022-08-26T10:10:45;41.45;;;10.02;;
39266;SDS011;24967;51.154;13.812;2022-08-26T10:13:13;31.92;;;10.25;;
39266;SDS011;24967;51.154;13.812;2022-08-26T10:15:46;25.90;;;9.88;;
39266;SDS011;24967;51.154;13.812;2022-08-26T10:18:21;24.27;;;8.65;;
39266;SDS011;24967;51.154;13.812;2022-08-26T10:20:53;26.33;;;9.20;;
39266;SDS011;24967;51.154;13.812;2022-08-26T10:23:23;16.85;;;7.57;;
39266;SDS011;24967;51.154;13.812;2022-08-26T10:25:53;17.47;;;6.70;;
39266;SDS011;24967;51.154;13.812;2022-08-26T10:28:25;23.63;;;6.72;;
39266;SDS011;24967;51.154;13.812;2022-08-26T10:30:59;20.48;;;7.10;;
39266;SDS011;24967;51.154;13.812;2022-08-26T10:33:29;16.10;;;5.95;;
39266;SDS011;24967;51.154;13.812;2022-08-26T10:35:57;20.08;;;7.80;;
39266;SDS011;24967;51.154;13.812;2022-08-26T10:38:29;18.10;;;8.80;;
39266;SDS011;24967;51.154;13.812;2022-08-26T10:41:01;23.92;;;10.80;;
39266;SDS011;24967;51.154;13.812;2022-08-26T10:43:34;25.08;;;10.25;;
39266;SDS011;24967;51.154;13.812;2022-08-26T10:46:07;18.20;;;10.88;;
39266;SDS011;24967;51.154;13.812;2022-08-26T10:48:41;18.45;;;12.05;;
39266;SDS011;24967;51.154;13.812;2022-08-26T10:51:12;23.95;;;11.40;;
39266;SDS011;24967;51.154;13.812;2022-08-26T10:53:45;22.42;;;10.35;;
39266;SDS011;24967;51.154;13.812;2022-08-26T10:56:24;10.75;;;8.10;;
39266;SDS011;24967;51.154;13.812;2022-08-26T10:59:00;17.08;;;8.38;;
39266;SDS011;24967;51.154;13.812;2022-08-26T11:01:33;13.55;;;8.05;;
39266;SDS011;24967;51.154;13.812;2022-08-26T11:04:10;13.32;;;6.78;;
39266;SDS011;24967;51.154;13.812;2022-08-26T11:06:45;12.27;;;5.93;;
39266;SDS011;24967;51.154;13.812;2022-08-26T11:09:40;14.25;;;6.90;;
39266;SDS011;24967;51.154;13.812;2022-08-26T11:12:08;11.55;;;6.30;;
39266;SDS011;24967;51.154;13.812;2022-08-26T11:14:36;10.90;;;6.25;;
39266;SDS011;24967;51.154;13.812;2022-08-26T11:17:05;12.77;;;6.32;;
39266;SDS011;24967;51.154;13.812;2022-08-26T11:19:57;9.30;;;5.15;;
39266;SDS011;24967;51.154;13.812;2022-08-26T11:22:26;8.90;;;4.43;;
39266;SDS011;24967;51.154;13.812;2022-08-26T11:25:02;5.10;;;4.05;;
39266;SDS011;24967;51.154;13.812;2022-08-26T11:33:45;2.40;;;2.10;;
39266;SDS011;24967;51.154;13.812;2022-08-26T11:36:27;2.80;;;2.60;;
39266;SDS011;24967;51.154;13.812;2022-08-26T11:39:00;3.65;;;2.38;;
39266;SDS011;24967;51.154;13.812;2022-08-26T11:41:27;4.15;;;2.40;;
39266;SDS011;24967;51.154;13.812;2022-08-26T11:43:55;6.78;;;3.10;;
39266;SDS011;24967;51.154;13.812;2022-08-26T11:46:24;4.95;;;2.53;;
39266;SDS011;24967;51.154;13.812;2022-08-26T11:49:00;4.00;;;2.80;;
39266;SDS011;24967;51.154;13.812;2022-08-26T11:51:29;3.35;;;2.20;;
39266;SDS011;24967;51.154;13.812;2022-08-26T11:54:07;2.47;;;2.20;;
39266;SDS011;24967;51.154;13.812;2022-08-26T11:56:35;2.57;;;2.20;;
39266;SDS011;24967;51.154;13.812;2022-08-26T11:59:06;2.17;;;2.00;;
39266;SDS011;24967;51.154;13.812;2022-08-26T12:01:35;2.10;;;1.90;;
39266;SDS011;24967;51.154;13.812;2022-08-26T12:04:05;1.92;;;1.83;;
39266;SDS011;24967;51.154;13.812;2022-08-26T12:06:33;1.70;;;1.60;;
39266;SDS011;24967;51.154;13.812;2022-08-26T12:09:03;2.13;;;1.85;;
39266;SDS011;24967;51.154;13.812;2022-08-26T12:11:34;4.68;;;2.20;;
39266;SDS011;24967;51.154;13.812;2022-08-26T12:14:03;2.28;;;1.85;;
39266;SDS011;24967;51.154;13.812;2022-08-26T12:16:33;1.88;;;1.77;;
39266;SDS011;24967;51.154;13.812;2022-08-26T12:19:05;3.42;;;1.80;;
39266;SDS011;24967;51.154;13.812;2022-08-26T12:21:46;5.07;;;2.22;;
39266;SDS011;24967;51.154;13.812;2022-08-26T12:24:15;2.10;;;1.80;;
39266;SDS011;24967;51.154;13.812;2022-08-26T12:26:42;1.52;;;1.42;;
39266;SDS011;24967;51.154;13.812;2022-08-26T12:29:11;4.10;;;1.75;;
39266;SDS011;24967;51.154;13.812;2022-08-26T12:31:50;1.73;;;1.63;;
39266;SDS011;24967;51.154;13.812;2022-08-26T12:34:19;3.83;;;2.10;;
39266;SDS011;24967;51.154;13.812;2022-08-26T12:36:46;2.42;;;1.98;;
39266;SDS011;24967;51.154;13.812;2022-08-26T12:39:16;2.35;;;1.55;;
39266;SDS011;24967;51.154;13.812;2022-08-26T12:41:52;3.45;;;1.63;;
39266;SDS011;24967;51.154;13.812;2022-08-26T12:44:29;1.75;;;1.58;;
39266;SDS011;24967;51.154;13.812;2022-08-26T12:47:00;4.20;;;1.70;;
39266;SDS011;24967;51.154;13.812;2022-08-26T12:49:29;4.60;;;2.47;;
39266;SDS011;24967;51.154;13.812;2022-08-26T12:51:56;2.65;;;2.15;;
39266;SDS011;24967;51.154;13.812;2022-08-26T12:54:23;3.22;;;2.10;;
39266;SDS011;24967;51.154;13.812;2022-08-26T12:57:10;4.18;;;2.40;;
39266;SDS011;24967;51.154;13.812;2022-08-26T12:59:38;4.28;;;2.35;;
39266;SDS011;24967;51.154;13.812;2022-08-26T13:02:05;3.28;;;2.28;;
39266;SDS011;24967;51.154;13.812;2022-08-26T13:04:34;4.20;;;2.38;;
39266;SDS011;24967;51.154;13.812;2022-08-26T13:07:19;4.13;;;2.58;;
39266;SDS011;24967;51.154;13.812;2022-08-26T13:09:48;3.97;;;2.40;;
39266;SDS011;24967;51.154;13.812;2022-08-26T13:12:22;5.22;;;2.67;;
39266;SDS011;24967;51.154;13.812;2022-08-26T13:14:53;4.32;;;2.78;;
39266;SDS011;24967;51.154;13.812;2022-08-26T13:17:21;4.72;;;2.35;;
39266;SDS011;24967;51.154;13.812;2022-08-26T13:19:49;3.40;;;2.10;;
39266;SDS011;24967;51.154;13.812;2022-08-26T13:22:16;3.95;;;2.95;;
39266;SDS011;24967;51.154;13.812;2022-08-26T13:24:48;3.78;;;2.42;;
39266;SDS011;24967;51.154;13.812;2022-08-26T13:27:18;3.15;;;2.85;;
39266;SDS011;24967;51.154;13.812;2022-08-26T13:29:47;6.20;;;2.85;;
39266;SDS011;24967;51.154;13.812;2022-08-26T13:32:14;8.23;;;3.40;;
39266;SDS011;24967;51.154;13.812;2022-08-26T13:34:47;3.15;;;2.33;;
39266;SDS011;24967;51.154;13.812;2022-08-26T13:37:16;5.28;;;2.88;;
39266;SDS011;24967;51.154;13.812;2022-08-26T13:39:46;6.05;;;2.70;;
39266;SDS011;24967;51.154;13.812;2022-08-26T13:42:12;8.32;;;3.50;;
39266;SDS011;24967;51.154;13.812;2022-08-26T13:44:39;6.85;;;3.42;;
39266;SDS011;24967;51.154;13.812;2022-08-26T13:47:07;13.57;;;4.00;;
39266;SDS011;24967;51.154;13.812;2022-08-26T13:49:34;10.07;;;3.65;;
39266;SDS011;24967;51.154;13.812;2022-08-26T13:52:00;9.50;;;4.25;;
39266;SDS011;24967;51.154;13.812;2022-08-26T13:54:29;8.77;;;4.15;;
39266;SDS011;24967;51.154;13.812;2022-08-26T13:56:55;7.93;;;4.45;;
39266;SDS011;24967;51.154;13.812;2022-08-26T13:59:22;8.57;;;4.00;;
39266;SDS011;24967;51.154;13.812;2022-08-26T14:01:49;12.10;;;4.70;;
39266;SDS011;24967;51.154;13.812;2022-08-26T14:04:16;8.75;;;3.78;;
39266;SDS011;24967;51.154;13.812;2022-08-26T14:06:42;9.05;;;4.10;;
39266;SDS011;24967;51.154;13.812;2022-08-26T14:09:09;7.45;;;3.80;;
39266;SDS011;24967;51.154;13.812;2022-08-26T14:11:37;9.63;;;3.90;;
39266;SDS011;24967;51.154;13.812;2022-08-26T14:14:03;5.82;;;3.30;;
39266;SDS011;24967;51.154;13.812;2022-08-26T14:16:31;7.90;;;3.28;;
39266;SDS011;24967;51.154;13.812;2022-08-26T14:19:01;8.32;;;3.78;;
39266;SDS011;24967;51.154;13.812;2022-08-26T14:21:30;16.90;;;4.78;;
39266;SDS011;24967;51.154;13.812;2022-08-26T14:23:58;19.40;;;6.40;;
39266;SDS011;24967;51.154;13.812;2022-08-26T14:26:25;11.52;;;5.68;;
39266;SDS011;24967;51.154;13.812;2022-08-26T14:28:53;14.13;;;6.05;;
39266;SDS011;24967;51.154;13.812;2022-08-26T14:31:19;11.43;;;5.18;;
39266;SDS011;24967;51.154;13.812;2022-08-26T14:33:48;12.82;;;4.97;;
39266;SDS011;24967;51.154;13.812;2022-08-26T14:36:15;8.98;;;4.97;;
39266;SDS011;24967;51.154;13.812;2022-08-26T14:38:56;11.68;;;4.60;;